createdAt,value
2023-01-19T07:59:39.509Z,94022.00
2023-01-19T08:00:39.420Z,94030.00
2023-01-19T08:01:39.522Z,94034.00
2023-01-19T08:02:39.420Z,94034.00
2023-01-19T08:03:39.427Z,94038.00
2023-01-19T08:04:39.565Z,94034.00
2023-01-19T08:05:39.420Z,94038.00
2023-01-19T08:06:39.432Z,94042.00
2023-01-19T08:07:39.499Z,94044.00
2023-01-19T08:08:39.340Z,94044.00
2023-01-19T08:09:39.330Z,94042.00
2023-01-19T08:10:39.336Z,94046.00
2023-01-19T08:11:39.340Z,94044.00
2023-01-19T08:12:39.353Z,94048.00
2023-01-19T08:13:39.431Z,94048.00
2023-01-19T08:14:39.339Z,94048.00
2023-01-19T08:15:39.366Z,94050.00
2023-01-19T08:16:39.340Z,94050.00
2023-01-19T08:17:39.349Z,94050.00
2023-01-19T08:18:39.260Z,94050.00
2023-01-19T08:19:41.543Z,94051.00
2023-01-19T08:20:39.300Z,94053.00
2023-01-19T08:21:39.294Z,94053.00
2023-01-19T08:22:39.266Z,94050.00
2023-01-19T08:23:39.302Z,94053.00
2023-01-19T08:24:39.246Z,94050.00
2023-01-19T08:25:39.259Z,94050.00
2023-01-19T08:26:39.259Z,94048.00
2023-01-19T08:27:39.264Z,94048.00
2023-01-19T08:28:39.280Z,94048.00
2023-01-19T08:29:39.179Z,94050.00
2023-01-19T08:30:39.215Z,94050.00
2023-01-19T08:31:39.334Z,94053.00
2023-01-19T08:32:39.187Z,94055.00
2023-01-19T08:33:39.262Z,94055.00
2023-01-19T08:34:39.190Z,94055.00
2023-01-19T08:35:39.283Z,94061.00
2023-01-19T08:36:39.241Z,94061.00
2023-01-19T08:37:39.204Z,94061.00
2023-01-19T08:38:39.160Z,94061.00
2023-01-19T08:39:39.291Z,94059.00
2023-01-19T08:40:39.170Z,94057.00
2023-01-19T08:41:39.186Z,94057.00
2023-01-19T08:42:39.402Z,94055.00
2023-01-19T08:43:39.249Z,94059.00
2023-01-19T08:44:46.692Z,94055.00
2023-01-19T08:45:40.091Z,94055.00
2023-01-19T08:46:39.521Z,94053.00
2023-01-19T08:47:39.222Z,94057.00
2023-01-19T08:48:40.003Z,94051.00
